createdAt,value
2023-09-29T00:00:17.766Z,16.60
2023-09-29T00:03:08.076Z,15.82
2023-09-29T00:05:36.484Z,15.25
2023-09-29T00:08:04.215Z,15.20
2023-09-29T00:10:32.316Z,15.43
2023-09-29T00:12:59.945Z,15.73
2023-09-29T00:15:27.690Z,16.10
2023-09-29T00:17:55.330Z,15.75
2023-09-29T00:20:23.177Z,15.70
2023-09-29T00:22:54.644Z,17.63
2023-09-29T00:25:22.977Z,17.02
2023-09-29T00:27:51.534Z,18.02
2023-09-29T00:30:19.992Z,16.50
2023-09-29T00:32:52.356Z,15.88
2023-09-29T00:35:29.262Z,16.52
2023-09-29T00:37:59.136Z,15.98
2023-09-29T00:40:27.805Z,15.25
2023-09-29T00:42:55.930Z,16.52
2023-09-29T00:45:27.722Z,14.70
2023-09-29T00:47:59.074Z,16.75
2023-09-29T00:50:31.124Z,16.00
2023-09-29T00:53:01.152Z,16.80
2023-09-29T00:55:31.447Z,16.33
2023-09-29T00:58:00.331Z,16.90
2023-09-29T01:00:30.586Z,17.40
2023-09-29T01:03:10.525Z,15.68
2023-09-29T01:05:43.632Z,15.98
2023-09-29T01:08:14.129Z,17.13
2023-09-29T01:10:43.036Z,17.02
2023-09-29T01:13:11.153Z,16.73
2023-09-29T01:15:40.316Z,18.05
2023-09-29T01:18:08.628Z,16.30
2023-09-29T01:20:39.207Z,17.13
2023-09-29T01:23:09.161Z,15.73
2023-09-29T01:25:37.871Z,16.65
2023-09-29T01:28:08.567Z,17.02
2023-09-29T01:30:37.888Z,17.08
2023-09-29T01:33:06.047Z,17.08
2023-09-29T01:35:34.468Z,17.33
2023-09-29T01:38:02.560Z,17.85
2023-09-29T01:40:31.147Z,19.23
2023-09-29T01:42:59.184Z,17.70
2023-09-29T01:45:28.475Z,19.70
2023-09-29T01:47:56.807Z,18.38
2023-09-29T01:50:25.128Z,20.23
2023-09-29T01:52:53.070Z,20.15
2023-09-29T01:55:22.457Z,18.30
2023-09-29T01:57:51.952Z,19.50
2023-09-29T02:00:26.032Z,20.30
2023-09-29T02:02:55.541Z,20.15
2023-09-29T02:05:25.047Z,20.23
2023-09-29T02:07:53.999Z,20.45
2023-09-29T02:10:23.691Z,20.98
2023-09-29T02:12:56.600Z,20.35
2023-09-29T02:15:26.742Z,18.77
2023-09-29T02:17:55.242Z,19.30
2023-09-29T02:20:27.246Z,18.98
2023-09-29T02:22:56.386Z,20.60
2023-09-29T02:25:27.580Z,20.05
2023-09-29T02:27:58.614Z,20.17
2023-09-29T02:30:27.661Z,21.17
2023-09-29T02:32:55.468Z,20.45
2023-09-29T02:35:24.522Z,21.30
2023-09-29T02:37:53.891Z,19.70
2023-09-29T02:40:23.476Z,20.38
2023-09-29T02:42:51.885Z,20.00
2023-09-29T02:45:20.485Z,19.83
2023-09-29T02:47:49.214Z,19.48
2023-09-29T02:50:18.134Z,20.30
2023-09-29T02:52:45.892Z,20.00
2023-09-29T02:55:17.972Z,22.45
2023-09-29T02:57:47.284Z,21.20
2023-09-29T03:00:24.852Z,22.20
2023-09-29T03:02:55.286Z,22.83
2023-09-29T03:05:23.783Z,19.33
2023-09-29T03:07:55.137Z,21.98
2023-09-29T03:10:27.685Z,20.52
2023-09-29T03:12:58.372Z,20.83
2023-09-29T03:15:27.304Z,20.88
2023-09-29T03:17:58.917Z,24.35
2023-09-29T03:20:28.519Z,22.60
2023-09-29T03:22:58.786Z,24.98
2023-09-29T03:25:26.569Z,23.35
2023-09-29T03:27:55.236Z,21.60
2023-09-29T03:30:23.219Z,23.88
2023-09-29T03:32:50.725Z,23.52
2023-09-29T03:35:18.793Z,24.60
2023-09-29T03:37:46.683Z,25.52
2023-09-29T03:40:19.620Z,28.45
2023-09-29T03:42:48.109Z,27.25
2023-09-29T03:45:16.130Z,25.98
2023-09-29T03:47:43.849Z,29.05
2023-09-29T03:50:13.622Z,29.40
2023-09-29T03:52:44.118Z,27.25
2023-09-29T03:55:14.004Z,27.73
2023-09-29T03:57:49.562Z,30.35
2023-09-29T04:00:19.609Z,29.73
2023-09-29T04:02:51.270Z,29.15
2023-09-29T04:07:47.485Z,29.67
2023-09-29T04:10:19.090Z,28.55
2023-09-29T04:12:47.719Z,30.77
2023-09-29T04:15:17.535Z,29.60
2023-09-29T04:17:45.579Z,30.08
2023-09-29T04:20:14.293Z,29.00
2023-09-29T04:22:41.805Z,28.45
2023-09-29T04:25:11.460Z,29.08
2023-09-29T04:27:40.947Z,29.23
2023-09-29T04:30:10.567Z,30.85
2023-09-29T04:32:38.515Z,25.77
2023-09-29T04:35:06.987Z,31.27
2023-09-29T04:37:34.411Z,33.20
2023-09-29T04:40:02.199Z,31.23
2023-09-29T04:42:29.750Z,31.38
2023-09-29T04:44:57.480Z,35.10
2023-09-29T04:47:25.558Z,30.92
2023-09-29T04:49:53.690Z,32.28
2023-09-29T04:52:21.179Z,30.20
2023-09-29T04:54:49.479Z,31.92
2023-09-29T04:57:17.055Z,33.00
2023-09-29T04:59:44.901Z,30.23
2023-09-29T05:02:12.823Z,29.60
2023-09-29T05:04:40.929Z,31.02
2023-09-29T05:07:08.863Z,29.58
2023-09-29T05:09:36.845Z,30.05
2023-09-29T05:12:06.045Z,29.48
2023-09-29T05:14:34.294Z,29.38
2023-09-29T05:17:01.770Z,30.05
2023-09-29T05:19:29.482Z,29.35
2023-09-29T05:21:56.886Z,27.88
2023-09-29T05:24:24.859Z,27.60
2023-09-29T05:26:52.278Z,29.20
2023-09-29T05:29:19.909Z,28.58
2023-09-29T05:31:47.418Z,27.00
2023-09-29T05:34:15.229Z,29.00
2023-09-29T05:36:42.598Z,27.38
2023-09-29T05:39:11.294Z,28.75
2023-09-29T05:41:38.699Z,27.55
2023-09-29T05:44:06.902Z,26.90
2023-09-29T05:46:34.298Z,28.65
2023-09-29T05:49:02.281Z,24.30
2023-09-29T05:51:29.869Z,26.45
2023-09-29T05:53:59.757Z,26.80
2023-09-29T05:56:27.741Z,26.95
2023-09-29T05:58:56.537Z,25.58
2023-09-29T06:01:26.735Z,24.05
2023-09-29T06:03:54.832Z,23.05
2023-09-29T06:06:23.251Z,24.05
2023-09-29T06:08:55.262Z,21.80
2023-09-29T06:11:24.030Z,20.65
2023-09-29T06:13:52.052Z,20.70
2023-09-29T06:16:20.133Z,18.35
2023-09-29T06:18:48.175Z,19.55
2023-09-29T06:21:17.552Z,17.17
2023-09-29T06:23:45.540Z,18.70
2023-09-29T06:26:13.095Z,16.33
2023-09-29T06:28:40.841Z,16.52
2023-09-29T06:31:09.757Z,17.50
2023-09-29T06:33:37.649Z,15.63
2023-09-29T06:36:06.076Z,15.32
2023-09-29T06:38:33.990Z,14.57
2023-09-29T06:41:01.333Z,14.00
2023-09-29T06:43:29.013Z,13.65
2023-09-29T06:48:27.083Z,14.70
2023-09-29T06:51:00.335Z,14.07
2023-09-29T06:53:30.122Z,15.55
2023-09-29T06:55:59.498Z,14.20
2023-09-29T06:58:28.058Z,14.20
2023-09-29T07:00:57.387Z,12.20
2023-09-29T07:03:31.493Z,12.60
2023-09-29T07:06:01.249Z,12.18
2023-09-29T07:08:29.843Z,12.88
2023-09-29T07:10:57.587Z,13.38
2023-09-29T07:13:25.686Z,12.80
2023-09-29T07:15:53.035Z,12.38
2023-09-29T07:18:22.904Z,12.00
2023-09-29T07:20:53.753Z,12.73
2023-09-29T07:23:23.412Z,10.55
2023-09-29T07:25:54.340Z,10.93
2023-09-29T07:28:24.860Z,11.33
2023-09-29T07:30:52.499Z,10.02
2023-09-29T07:33:20.776Z,10.40
2023-09-29T07:35:48.572Z,10.57
2023-09-29T07:38:19.207Z,11.25
2023-09-29T07:40:47.546Z,11.85
2023-09-29T07:43:15.347Z,10.35
2023-09-29T07:45:42.822Z,11.00
2023-09-29T07:48:10.614Z,9.70
2023-09-29T07:50:38.476Z,9.68
2023-09-29T07:53:06.282Z,9.45
2023-09-29T07:55:33.612Z,8.90
2023-09-29T07:58:01.854Z,9.35
2023-09-29T08:00:29.280Z,10.20
2023-09-29T08:02:57.095Z,9.00
2023-09-29T08:05:24.843Z,9.30
2023-09-29T08:07:52.978Z,8.68
2023-09-29T08:10:20.402Z,8.70
2023-09-29T08:12:48.147Z,8.43
2023-09-29T08:15:16.240Z,7.85
2023-09-29T08:17:45.445Z,8.05
2023-09-29T08:20:16.047Z,7.30
2023-09-29T08:22:44.765Z,8.27
2023-09-29T08:25:12.483Z,7.85
2023-09-29T08:27:40.553Z,6.88
2023-09-29T08:30:09.305Z,7.47
2023-09-29T08:32:45.074Z,7.13
2023-09-29T08:35:15.186Z,6.82
2023-09-29T08:37:44.542Z,6.75
2023-09-29T08:40:15.168Z,6.20
2023-09-29T08:42:50.557Z,7.28
2023-09-29T08:45:19.379Z,6.18
2023-09-29T08:47:54.341Z,5.95
2023-09-29T08:50:25.922Z,7.85
2023-09-29T08:52:55.278Z,6.50
2023-09-29T08:55:25.460Z,5.15
2023-09-29T08:57:56.062Z,5.05
2023-09-29T09:00:24.660Z,5.70
2023-09-29T09:02:52.638Z,4.82
2023-09-29T09:05:21.479Z,5.25
2023-09-29T09:07:49.433Z,5.43
2023-09-29T09:10:27.230Z,5.68
2023-09-29T09:13:01.278Z,6.65
2023-09-29T09:15:28.963Z,6.85
2023-09-29T09:17:58.636Z,5.97
2023-09-29T09:20:26.503Z,5.57
2023-09-29T09:22:58.657Z,5.15
2023-09-29T09:28:00.656Z,4.28
2023-09-29T09:30:28.952Z,5.85
2023-09-29T09:32:56.799Z,4.70
2023-09-29T09:35:25.714Z,5.28
2023-09-29T09:37:53.639Z,4.75
2023-09-29T09:40:22.397Z,5.20
2023-09-29T09:42:50.808Z,4.50
2023-09-29T09:45:18.241Z,4.90
2023-09-29T09:47:47.937Z,5.13
2023-09-29T09:50:16.090Z,4.60
2023-09-29T09:52:51.995Z,7.45
2023-09-29T09:55:20.528Z,5.45
2023-09-29T09:57:51.408Z,5.32
2023-09-29T10:00:19.423Z,4.55
2023-09-29T10:02:54.649Z,5.60
2023-09-29T10:05:24.569Z,5.10
2023-09-29T10:08:02.898Z,5.13
2023-09-29T10:10:36.014Z,4.70
2023-09-29T10:13:07.726Z,4.63
2023-09-29T10:15:36.530Z,4.45
2023-09-29T10:18:19.105Z,4.47
2023-09-29T10:20:52.325Z,5.43
2023-09-29T10:23:20.452Z,4.63
2023-09-29T10:26:03.411Z,5.88
2023-09-29T10:28:35.278Z,5.00
2023-09-29T10:31:15.359Z,4.38
2023-09-29T10:33:51.952Z,5.03
2023-09-29T10:36:24.768Z,3.90
2023-09-29T10:38:54.937Z,4.53
2023-09-29T10:41:34.969Z,4.90
2023-09-29T10:44:05.558Z,4.18
2023-09-29T10:46:33.360Z,4.30
2023-09-29T10:49:02.362Z,4.30
2023-09-29T10:51:34.351Z,4.32
2023-09-29T10:54:04.471Z,4.63
2023-09-29T10:56:32.305Z,4.32
2023-09-29T10:59:01.111Z,4.20
2023-09-29T11:01:35.112Z,4.25
2023-09-29T11:04:05.446Z,3.10
2023-09-29T11:06:41.865Z,3.92
2023-09-29T11:09:15.112Z,3.47
2023-09-29T11:11:42.565Z,3.53
2023-09-29T11:14:10.464Z,4.50
2023-09-29T11:16:38.234Z,3.45
2023-09-29T11:19:17.118Z,3.83
2023-09-29T11:21:44.686Z,5.90
2023-09-29T11:24:20.417Z,4.07
2023-09-29T11:26:49.678Z,4.00
2023-09-29T11:29:22.755Z,4.03
2023-09-29T11:31:56.625Z,3.53
2023-09-29T11:34:25.081Z,3.10
2023-09-29T11:36:53.271Z,4.28
2023-09-29T11:39:22.385Z,4.25
2023-09-29T11:41:50.154Z,3.30
2023-09-29T11:44:21.073Z,3.35
2023-09-29T11:46:48.656Z,3.00
2023-09-29T11:49:16.433Z,3.75
2023-09-29T11:51:43.906Z,3.33
2023-09-29T11:54:11.717Z,4.00
2023-09-29T11:56:39.252Z,2.92
2023-09-29T11:59:07.001Z,4.38
2023-09-29T12:01:34.662Z,4.50
2023-09-29T12:04:02.900Z,3.33
2023-09-29T12:06:30.401Z,4.00
2023-09-29T12:08:58.455Z,3.15
2023-09-29T12:11:26.491Z,3.17
2023-09-29T12:13:54.323Z,3.65
2023-09-29T12:16:21.776Z,3.38
2023-09-29T12:18:49.524Z,2.95
2023-09-29T12:21:17.224Z,3.25
2023-09-29T12:23:45.117Z,2.95
2023-09-29T12:26:12.742Z,2.80
2023-09-29T12:28:40.685Z,3.90
2023-09-29T12:31:17.756Z,3.90
2023-09-29T12:33:46.887Z,3.33
2023-09-29T12:36:14.956Z,3.75
2023-09-29T12:38:44.609Z,3.08
2023-09-29T12:41:13.837Z,2.67
2023-09-29T12:43:42.488Z,3.30
2023-09-29T12:46:09.950Z,3.25
2023-09-29T12:48:37.647Z,2.95
2023-09-29T12:51:05.328Z,3.00
2023-09-29T12:53:33.312Z,3.03
2023-09-29T12:56:02.292Z,3.30
2023-09-29T12:58:30.204Z,3.33
2023-09-29T13:00:57.729Z,3.08
2023-09-29T13:03:25.768Z,2.70
2023-09-29T13:05:59.773Z,2.80
2023-09-29T13:08:28.586Z,2.85
2023-09-29T13:10:56.801Z,2.97
2023-09-29T13:13:24.997Z,3.20
2023-09-29T13:15:52.872Z,2.70
2023-09-29T13:18:20.892Z,2.50
2023-09-29T13:20:50.055Z,3.95
2023-09-29T13:23:18.703Z,3.22
2023-09-29T13:25:46.425Z,3.22
2023-09-29T13:28:14.469Z,3.22
2023-09-29T13:30:53.584Z,3.30
2023-09-29T13:33:28.118Z,3.63
2023-09-29T13:35:56.129Z,3.42
2023-09-29T13:38:24.411Z,3.65
2023-09-29T13:40:55.450Z,2.50
2023-09-29T13:43:23.466Z,3.08
2023-09-29T13:45:51.231Z,2.63
2023-09-29T13:48:23.847Z,3.22
2023-09-29T13:50:51.993Z,3.50
2023-09-29T13:53:19.869Z,4.05
2023-09-29T13:55:48.124Z,3.20
2023-09-29T13:58:15.898Z,3.15
2023-09-29T14:00:44.129Z,3.65
2023-09-29T14:03:12.486Z,3.10
2023-09-29T14:05:40.381Z,3.05
2023-09-29T14:08:08.774Z,3.50
2023-09-29T14:10:36.152Z,3.25
2023-09-29T14:13:04.361Z,3.00
2023-09-29T14:15:35.186Z,2.95
2023-09-29T14:18:03.386Z,3.58
2023-09-29T14:20:35.141Z,3.22
2023-09-29T14:23:04.358Z,3.60
2023-09-29T14:25:31.829Z,3.35
2023-09-29T14:27:59.622Z,3.50
2023-09-29T14:30:28.726Z,2.80
2023-09-29T14:32:57.173Z,3.72
2023-09-29T14:35:34.264Z,3.63
2023-09-29T14:38:11.076Z,2.80
2023-09-29T14:40:39.892Z,3.42
2023-09-29T14:43:07.634Z,3.53
2023-09-29T14:45:35.117Z,3.38
2023-09-29T14:48:05.574Z,3.30
2023-09-29T14:50:41.463Z,3.67
2023-09-29T14:53:09.403Z,4.28
2023-09-29T14:55:40.021Z,5.25
2023-09-29T14:58:08.717Z,4.88
2023-09-29T15:00:36.671Z,3.72
2023-09-29T15:03:06.786Z,4.15
2023-09-29T15:05:36.160Z,4.25
2023-09-29T15:08:04.707Z,4.07
2023-09-29T15:10:32.161Z,3.80
2023-09-29T15:13:02.621Z,4.10
2023-09-29T15:15:30.375Z,3.70
2023-09-29T15:17:58.272Z,3.67
2023-09-29T15:20:26.000Z,3.83
2023-09-29T15:22:54.096Z,3.97
2023-09-29T15:25:21.531Z,3.20
2023-09-29T15:27:49.565Z,3.75
2023-09-29T15:30:17.184Z,4.68
2023-09-29T15:32:44.994Z,4.82
2023-09-29T15:35:12.838Z,4.70
2023-09-29T15:37:40.664Z,4.05
2023-09-29T15:40:08.904Z,5.13
2023-09-29T15:42:36.638Z,5.72
2023-09-29T15:45:05.452Z,4.20
2023-09-29T15:47:33.192Z,4.63
2023-09-29T15:50:08.365Z,4.38
2023-09-29T15:52:39.556Z,4.97
2023-09-29T15:55:07.785Z,4.82
2023-09-29T15:57:35.671Z,4.60
2023-09-29T16:00:03.882Z,4.28
2023-09-29T16:02:37.885Z,4.75
2023-09-29T16:05:05.993Z,4.55
2023-09-29T16:07:33.725Z,4.85
2023-09-29T16:10:01.274Z,5.15
2023-09-29T16:12:29.420Z,5.32
2023-09-29T16:14:57.040Z,4.70
2023-09-29T16:17:24.991Z,5.63
2023-09-29T16:19:52.650Z,5.07
2023-09-29T16:22:20.622Z,6.28
2023-09-29T16:24:48.390Z,7.57
2023-09-29T16:27:16.462Z,6.47
2023-09-29T16:29:43.882Z,6.05
2023-09-29T16:32:29.241Z,6.68
2023-09-29T16:35:01.187Z,6.28
2023-09-29T16:37:28.935Z,5.43
2023-09-29T16:39:57.103Z,6.30
2023-09-29T16:42:25.248Z,5.68
2023-09-29T16:44:52.706Z,5.72
2023-09-29T16:47:20.496Z,5.72
2023-09-29T16:49:52.029Z,6.57
2023-09-29T16:52:20.242Z,6.50
2023-09-29T16:54:47.816Z,5.47
2023-09-29T16:57:16.069Z,6.20
2023-09-29T16:59:43.968Z,6.28
2023-09-29T17:02:11.712Z,6.32
2023-09-29T17:04:39.137Z,9.35
2023-09-29T17:07:06.950Z,10.70
2023-09-29T17:09:34.395Z,9.07
2023-09-29T17:12:02.956Z,9.18
2023-09-29T17:14:30.554Z,7.57
2023-09-29T17:16:58.398Z,8.88
2023-09-29T17:19:26.165Z,9.85
2023-09-29T17:21:53.882Z,9.02
2023-09-29T17:24:21.488Z,9.88
2023-09-29T17:26:49.646Z,10.55
2023-09-29T17:29:17.298Z,9.27
2023-09-29T17:31:45.374Z,8.80
2023-09-29T17:34:13.033Z,7.63
2023-09-29T17:36:41.002Z,9.02
2023-09-29T17:39:08.838Z,9.63
2023-09-29T17:41:36.841Z,8.57
2023-09-29T17:44:04.385Z,7.63
2023-09-29T17:46:32.181Z,8.43
2023-09-29T17:48:59.932Z,7.22
2023-09-29T17:51:28.156Z,7.68
2023-09-29T17:53:55.729Z,7.90
2023-09-29T17:56:23.452Z,7.72
2023-09-29T17:58:50.839Z,7.97
2023-09-29T18:01:19.851Z,7.85
2023-09-29T18:03:48.053Z,7.45
2023-09-29T18:06:15.959Z,7.47
2023-09-29T18:08:43.903Z,7.03
2023-09-29T18:11:16.567Z,6.78
2023-09-29T18:13:43.999Z,7.50
2023-09-29T18:16:12.114Z,6.72
2023-09-29T18:18:40.241Z,6.57
2023-09-29T18:21:08.045Z,7.80
2023-09-29T18:23:35.574Z,7.03
2023-09-29T18:26:03.772Z,7.68
2023-09-29T18:28:32.729Z,7.13
2023-09-29T18:31:00.858Z,7.18
2023-09-29T18:33:31.503Z,6.68
2023-09-29T18:36:02.082Z,7.18
2023-09-29T18:38:30.336Z,7.60
2023-09-29T18:40:58.487Z,48.00
2023-09-29T18:43:25.984Z,6.93
2023-09-29T18:46:01.010Z,7.03
2023-09-29T18:48:29.777Z,7.78
2023-09-29T18:51:03.289Z,7.20
2023-09-29T18:53:31.789Z,7.10
2023-09-29T18:55:59.561Z,8.80
2023-09-29T18:58:28.059Z,7.10
2023-09-29T19:00:56.538Z,7.03
2023-09-29T19:03:24.295Z,6.85
2023-09-29T19:05:52.785Z,6.95
2023-09-29T19:08:20.387Z,7.18
2023-09-29T19:10:48.055Z,8.02
2023-09-29T19:13:16.187Z,6.68
2023-09-29T19:15:44.154Z,7.78
2023-09-29T19:18:12.740Z,6.90
2023-09-29T19:20:40.758Z,7.38
2023-09-29T19:23:08.215Z,7.50
2023-09-29T19:25:36.356Z,7.00
2023-09-29T19:28:04.812Z,12.40
2023-09-29T19:30:33.599Z,8.05
2023-09-29T19:33:01.201Z,7.13
2023-09-29T19:35:29.136Z,7.18
2023-09-29T19:37:56.672Z,7.63
2023-09-29T19:40:24.598Z,6.22
2023-09-29T19:42:52.151Z,7.57
2023-09-29T19:45:19.956Z,10.75
2023-09-29T19:47:47.585Z,7.50
2023-09-29T19:50:15.529Z,7.60
2023-09-29T19:52:42.927Z,6.90
2023-09-29T19:55:16.757Z,10.00
2023-09-29T19:57:48.476Z,8.93
2023-09-29T20:00:16.541Z,9.27
2023-09-29T20:02:44.016Z,7.40
2023-09-29T20:05:14.140Z,7.22
2023-09-29T20:07:41.762Z,7.10
2023-09-29T20:10:12.726Z,7.78
2023-09-29T20:12:40.687Z,7.15
2023-09-29T20:15:09.116Z,7.07
2023-09-29T20:17:36.998Z,7.40
2023-09-29T20:20:05.441Z,7.28
2023-09-29T20:22:33.218Z,6.88
2023-09-29T20:25:02.123Z,7.50
2023-09-29T20:27:29.596Z,8.00
2023-09-29T20:29:57.390Z,7.63
2023-09-29T20:32:25.067Z,6.35
2023-09-29T20:34:52.928Z,6.82
2023-09-29T20:37:21.648Z,7.80
2023-09-29T20:39:49.704Z,7.38
2023-09-29T20:42:17.507Z,7.30
2023-09-29T20:44:46.970Z,8.18
2023-09-29T20:47:14.484Z,7.43
2023-09-29T20:49:42.342Z,8.60
2023-09-29T20:52:09.890Z,7.20
2023-09-29T20:54:37.909Z,8.73
2023-09-29T20:57:05.986Z,18.15
2023-09-29T20:59:33.633Z,9.55
2023-09-29T21:02:01.360Z,14.63
2023-09-29T21:04:29.939Z,8.88
2023-09-29T21:06:57.380Z,9.40
2023-09-29T21:09:25.199Z,9.10
2023-09-29T21:11:52.732Z,9.18
2023-09-29T21:14:20.637Z,9.02
2023-09-29T21:16:48.089Z,8.48
2023-09-29T21:19:16.065Z,7.25
2023-09-29T21:21:43.986Z,7.95
2023-09-29T21:24:12.179Z,15.38
2023-09-29T21:26:39.649Z,47.03
2023-09-29T21:29:07.723Z,41.75
2023-09-29T21:31:40.998Z,30.15
2023-09-29T21:34:09.146Z,13.40
2023-09-29T21:36:36.696Z,16.35
2023-09-29T21:39:04.701Z,12.15
2023-09-29T21:41:32.336Z,17.30
2023-09-29T21:44:00.228Z,56.88
2023-09-29T21:46:27.729Z,52.47
2023-09-29T21:48:57.039Z,59.45
2023-09-29T21:51:24.505Z,45.20
2023-09-29T21:53:52.171Z,35.67
2023-09-29T21:56:19.609Z,16.20
2023-09-29T21:58:47.344Z,9.63
2023-09-29T22:01:19.959Z,9.05
2023-09-29T22:03:48.036Z,7.43
2023-09-29T22:06:15.767Z,7.20
2023-09-29T22:08:43.847Z,7.55
2023-09-29T22:11:11.302Z,13.32
2023-09-29T22:13:39.314Z,20.05
2023-09-29T22:16:08.927Z,27.70
2023-09-29T22:18:38.158Z,89.20
2023-09-29T22:21:05.704Z,42.63
2023-09-29T22:23:33.946Z,56.22
2023-09-29T22:26:01.608Z,41.33
2023-09-29T22:28:29.419Z,48.17
2023-09-29T22:30:56.887Z,34.53
2023-09-29T22:33:25.370Z,21.45
2023-09-29T22:35:52.960Z,11.80
2023-09-29T22:38:20.800Z,11.18
2023-09-29T22:40:48.226Z,12.73
2023-09-29T22:43:16.018Z,10.38
2023-09-29T22:45:43.688Z,42.72
2023-09-29T22:48:11.608Z,19.70
2023-09-29T22:50:40.327Z,55.92
2023-09-29T22:53:08.123Z,30.52
2023-09-29T22:55:35.660Z,24.23
2023-09-29T22:58:03.501Z,18.02
2023-09-29T23:00:31.203Z,33.58
2023-09-29T23:02:59.136Z,22.75
2023-09-29T23:05:26.670Z,16.95
2023-09-29T23:07:54.590Z,39.08
2023-09-29T23:10:21.998Z,32.03
2023-09-29T23:12:50.347Z,10.05
2023-09-29T23:15:18.072Z,21.98
2023-09-29T23:17:45.912Z,22.13
2023-09-29T23:20:13.384Z,59.25
2023-09-29T23:22:41.191Z,23.77
2023-09-29T23:25:09.215Z,23.92
2023-09-29T23:27:37.329Z,21.30
2023-09-29T23:30:05.764Z,15.50
2023-09-29T23:32:34.027Z,20.00
2023-09-29T23:35:02.237Z,14.93
2023-09-29T23:37:31.346Z,11.95
2023-09-29T23:39:59.113Z,15.02
2023-09-29T23:42:27.248Z,13.18
2023-09-29T23:44:54.735Z,10.05
2023-09-29T23:47:22.764Z,8.32
2023-09-29T23:49:50.208Z,9.02
2023-09-29T23:52:18.012Z,12.10
2023-09-29T23:54:45.489Z,11.43
2023-09-29T23:57:13.847Z,8.82
2023-09-29T23:59:42.837Z,8.90
